createdAt,value
2018-12-17T00:00:30.284Z,33.27
2018-12-17T00:02:58.730Z,23.63
2018-12-17T00:05:27.048Z,25.97
2018-12-17T00:07:55.400Z,18.37
2018-12-17T00:10:23.940Z,16.63
2018-12-17T00:12:52.274Z,14.50
2018-12-17T00:15:20.744Z,14.43
2018-12-17T00:17:49.072Z,14.30
2018-12-17T00:20:17.403Z,17.93
2018-12-17T00:22:45.732Z,15.03
2018-12-17T00:25:14.054Z,29.07
2018-12-17T00:27:42.381Z,15.70
2018-12-17T00:30:10.818Z,22.67
2018-12-17T00:32:39.174Z,20.77
2018-12-17T00:35:07.622Z,25.73
2018-12-17T00:37:35.960Z,16.53
2018-12-17T00:40:06.141Z,15.53
2018-12-17T00:42:34.506Z,18.37
2018-12-17T00:45:02.994Z,23.63
2018-12-17T00:47:31.492Z,15.97
2018-12-17T00:49:59.852Z,14.17
2018-12-17T00:52:28.194Z,13.13
2018-12-17T00:54:56.559Z,16.80
2018-12-17T00:57:24.903Z,9.90
2018-12-17T00:59:53.245Z,9.80
2018-12-17T01:02:21.578Z,7.97
2018-12-17T01:04:49.982Z,16.13
2018-12-17T01:07:20.667Z,24.27
2018-12-17T01:09:49.007Z,18.47
2018-12-17T01:12:17.350Z,22.10
2018-12-17T01:14:45.698Z,26.50
2018-12-17T01:17:14.031Z,23.87
2018-12-17T01:19:42.371Z,32.53
2018-12-17T01:22:10.715Z,22.97
2018-12-17T01:24:39.046Z,25.63
2018-12-17T01:27:07.442Z,22.90
2018-12-17T01:29:35.767Z,18.37
2018-12-17T01:32:04.099Z,16.67
2018-12-17T01:34:32.434Z,14.83
2018-12-17T01:37:00.845Z,15.87
2018-12-17T01:39:29.161Z,20.60
2018-12-17T01:41:57.552Z,18.67
2018-12-17T01:44:25.986Z,23.47
2018-12-17T01:46:54.548Z,24.60
2018-12-17T01:49:22.885Z,16.70
2018-12-17T01:51:51.217Z,9.70
2018-12-17T01:54:19.580Z,10.97
2018-12-17T01:56:47.898Z,9.70
2018-12-17T01:59:16.251Z,16.60
2018-12-17T02:01:44.675Z,11.33
2018-12-17T02:04:13.004Z,11.67
2018-12-17T02:06:41.350Z,12.93
2018-12-17T02:09:09.684Z,9.57
2018-12-17T02:11:38.086Z,12.50
2018-12-17T02:14:06.403Z,9.10
2018-12-17T02:16:34.748Z,11.10
2018-12-17T02:19:03.052Z,8.47
2018-12-17T02:21:31.391Z,9.83
2018-12-17T02:23:59.826Z,8.07
2018-12-17T02:26:28.147Z,9.27
2018-12-17T02:28:56.478Z,8.83
2018-12-17T02:31:24.818Z,8.80
2018-12-17T02:33:53.135Z,9.93
2018-12-17T02:36:21.469Z,11.90
2018-12-17T02:38:49.777Z,8.80
2018-12-17T02:41:18.108Z,11.10
2018-12-17T02:43:46.541Z,12.83
2018-12-17T02:46:15.014Z,7.60
2018-12-17T02:48:43.339Z,8.37
2018-12-17T02:51:11.928Z,8.33
2018-12-17T02:53:40.241Z,10.63
2018-12-17T02:56:08.559Z,14.03
2018-12-17T02:58:43.808Z,7.53
2018-12-17T03:01:07.280Z,10.90
2018-12-17T03:03:35.625Z,12.03
2018-12-17T03:06:04.101Z,11.53
2018-12-17T03:08:32.497Z,8.30
2018-12-17T03:11:00.822Z,14.70
2018-12-17T03:13:29.147Z,9.10
2018-12-17T03:15:57.618Z,9.00
2018-12-17T03:18:25.955Z,8.23
2018-12-17T03:20:54.379Z,7.87
2018-12-17T03:23:22.699Z,8.53
2018-12-17T03:25:51.069Z,7.47
2018-12-17T03:28:19.395Z,10.80
2018-12-17T03:30:47.705Z,7.93
2018-12-17T03:33:16.109Z,12.90
2018-12-17T03:35:44.406Z,9.00
2018-12-17T03:38:12.759Z,12.47
2018-12-17T03:40:41.123Z,13.20
2018-12-17T03:43:09.546Z,10.87
2018-12-17T03:45:37.891Z,10.30
2018-12-17T03:48:06.190Z,10.63
2018-12-17T03:50:34.512Z,9.53
2018-12-17T03:53:02.852Z,7.83
2018-12-17T03:55:31.186Z,8.70
2018-12-17T03:57:59.526Z,7.87
2018-12-17T04:00:27.873Z,7.67
2018-12-17T04:02:56.229Z,8.83
2018-12-17T04:05:24.641Z,7.40
2018-12-17T04:07:52.963Z,7.67
2018-12-17T04:10:21.302Z,6.10
2018-12-17T04:12:49.863Z,7.87
2018-12-17T04:15:18.387Z,6.57
2018-12-17T04:17:46.702Z,7.77
2018-12-17T04:20:15.052Z,6.53
2018-12-17T04:22:43.374Z,7.33
2018-12-17T04:25:11.698Z,9.00
2018-12-17T04:27:40.026Z,8.77
2018-12-17T04:30:08.397Z,8.87
2018-12-17T04:32:36.709Z,9.47
2018-12-17T04:35:05.185Z,8.70
2018-12-17T04:37:33.503Z,11.87
2018-12-17T04:40:01.856Z,19.63
2018-12-17T04:42:30.216Z,12.23
2018-12-17T04:44:58.544Z,12.30
2018-12-17T04:47:26.856Z,10.90
2018-12-17T04:49:55.199Z,10.17
2018-12-17T04:52:23.555Z,10.53
2018-12-17T04:54:51.904Z,9.70
2018-12-17T04:57:20.226Z,8.93
2018-12-17T04:59:48.587Z,10.13
2018-12-17T05:02:16.940Z,8.60
2018-12-17T05:04:45.283Z,10.80
2018-12-17T05:07:13.620Z,9.17
2018-12-17T05:09:41.930Z,8.83
2018-12-17T05:12:10.268Z,7.80
2018-12-17T05:14:38.610Z,7.40
2018-12-17T05:17:06.961Z,8.47
2018-12-17T05:19:35.316Z,8.17
2018-12-17T05:22:03.652Z,7.37
2018-12-17T05:24:32.060Z,8.57
2018-12-17T05:27:00.371Z,7.40
2018-12-17T05:29:28.699Z,9.60
2018-12-17T05:31:57.027Z,5.83
2018-12-17T05:34:25.375Z,6.70
2018-12-17T05:36:53.721Z,6.70
2018-12-17T05:39:22.052Z,5.57
2018-12-17T05:41:50.532Z,5.50
2018-12-17T05:44:18.875Z,6.17
2018-12-17T05:46:47.233Z,6.70
2018-12-17T05:49:15.640Z,6.30
2018-12-17T05:51:44.136Z,6.70
2018-12-17T05:54:12.457Z,8.43
2018-12-17T05:56:40.797Z,7.70
2018-12-17T05:59:09.153Z,8.30
2018-12-17T06:01:37.465Z,8.07
2018-12-17T06:04:05.802Z,7.40
2018-12-17T06:06:34.129Z,6.87
2018-12-17T06:09:02.549Z,8.87
2018-12-17T06:11:31.422Z,7.57
2018-12-17T06:13:59.721Z,7.17
2018-12-17T06:16:28.070Z,7.10
2018-12-17T06:18:56.489Z,5.57
2018-12-17T06:21:24.820Z,7.60
2018-12-17T06:23:53.165Z,6.73
2018-12-17T06:26:21.497Z,5.40
2018-12-17T06:28:49.818Z,4.80
2018-12-17T06:31:18.129Z,4.50
2018-12-17T06:33:46.473Z,5.70
2018-12-17T06:36:14.839Z,5.77
2018-12-17T06:38:43.174Z,6.73
2018-12-17T06:41:11.513Z,6.50
2018-12-17T06:43:39.834Z,5.73
2018-12-17T06:46:08.160Z,5.60
2018-12-17T06:48:36.521Z,5.27
2018-12-17T06:51:04.997Z,4.80
2018-12-17T06:53:33.347Z,5.97
2018-12-17T06:56:01.727Z,4.30
2018-12-17T06:58:30.390Z,5.60
2018-12-17T07:00:58.757Z,5.50
2018-12-17T07:03:27.988Z,3.90
2018-12-17T07:05:56.343Z,4.10
2018-12-17T07:08:24.665Z,5.40
2018-12-17T07:10:53.008Z,5.57
2018-12-17T07:13:21.325Z,6.60
2018-12-17T07:15:49.666Z,5.87
2018-12-17T07:18:18.046Z,6.33
2018-12-17T07:20:46.367Z,5.17
2018-12-17T07:23:14.764Z,5.53
2018-12-17T07:25:43.080Z,5.50
2018-12-17T07:28:11.408Z,6.00
2018-12-17T07:30:39.733Z,5.73
2018-12-17T07:33:08.035Z,6.47
2018-12-17T07:35:36.397Z,6.83
2018-12-17T07:38:04.813Z,5.93
2018-12-17T07:40:33.245Z,4.67
2018-12-17T07:43:01.529Z,6.53
2018-12-17T07:45:29.873Z,6.67
2018-12-17T07:47:58.189Z,5.43
2018-12-17T07:50:26.519Z,5.73
2018-12-17T07:52:54.856Z,4.53
2018-12-17T07:55:23.162Z,5.17
2018-12-17T07:57:51.495Z,4.97
2018-12-17T08:00:19.859Z,7.17
2018-12-17T08:02:48.188Z,5.20
2018-12-17T08:05:16.507Z,5.47
2018-12-17T08:07:44.840Z,6.03
2018-12-17T08:10:13.170Z,5.33
2018-12-17T08:12:41.492Z,5.27
2018-12-17T08:15:09.935Z,5.93
2018-12-17T08:17:38.284Z,4.70
2018-12-17T08:20:06.847Z,5.37
2018-12-17T08:22:35.504Z,4.77
2018-12-17T08:25:04.105Z,6.10
2018-12-17T08:27:32.426Z,6.53
2018-12-17T08:30:03.948Z,7.10
2018-12-17T08:32:31.073Z,6.93
2018-12-17T08:34:59.417Z,5.10
2018-12-17T08:37:27.754Z,5.33
2018-12-17T08:39:56.133Z,5.67
2018-12-17T08:42:24.473Z,9.63
2018-12-17T08:44:52.831Z,7.90
2018-12-17T08:47:21.727Z,7.63
2018-12-17T08:49:50.067Z,8.37
2018-12-17T08:52:18.385Z,10.63
2018-12-17T08:54:46.869Z,48.73
2018-12-17T08:57:15.277Z,26.57
2018-12-17T08:59:43.629Z,18.20
2018-12-17T09:02:12.006Z,13.47
2018-12-17T09:04:40.340Z,11.93
2018-12-17T09:07:08.788Z,12.80
2018-12-17T09:09:37.127Z,12.17
2018-12-17T09:12:05.477Z,18.13
2018-12-17T09:14:33.833Z,17.70
2018-12-17T09:17:02.224Z,11.23
2018-12-17T09:19:30.545Z,12.10
2018-12-17T09:21:58.981Z,12.23
2018-12-17T09:24:27.362Z,10.70
2018-12-17T09:26:55.706Z,12.50
2018-12-17T09:29:24.054Z,13.87
2018-12-17T09:31:52.431Z,14.20
2018-12-17T09:34:20.783Z,15.20
2018-12-17T09:36:49.140Z,16.17
2018-12-17T09:39:17.522Z,16.17
2018-12-17T09:41:46.121Z,21.27
2018-12-17T09:44:14.465Z,19.47
2018-12-17T09:46:43.582Z,15.77
2018-12-17T09:49:11.985Z,14.50
2018-12-17T09:51:40.321Z,15.10
2018-12-17T09:54:09.965Z,16.17
2018-12-17T09:56:38.336Z,15.77
2018-12-17T09:59:06.686Z,16.03
2018-12-17T10:01:35.068Z,19.07
2018-12-17T10:04:03.423Z,23.03
2018-12-17T10:06:31.767Z,19.53
2018-12-17T10:09:01.154Z,16.20
2018-12-17T10:11:29.749Z,18.13
2018-12-17T10:13:58.108Z,17.33
2018-12-17T10:16:26.433Z,14.87
2018-12-17T10:18:54.776Z,16.37
2018-12-17T10:21:23.105Z,15.50
2018-12-17T10:23:51.594Z,23.30
2018-12-17T10:26:20.320Z,45.93
2018-12-17T10:28:48.641Z,19.37
2018-12-17T10:31:23.643Z,21.20
2018-12-17T10:33:52.077Z,19.57
2018-12-17T10:36:20.431Z,17.23
2018-12-17T10:38:48.769Z,21.40
2018-12-17T10:41:17.123Z,13.80
2018-12-17T10:43:45.462Z,17.00
2018-12-17T10:46:13.802Z,18.27
2018-12-17T10:48:42.173Z,17.93
2018-12-17T10:51:10.493Z,15.40
2018-12-17T10:53:38.831Z,14.63
2018-12-17T10:56:07.182Z,14.17
2018-12-17T10:58:35.509Z,15.10
2018-12-17T11:14:29.325Z,19.67
2018-12-17T11:16:57.672Z,21.47
2018-12-17T11:19:26.007Z,21.60
2018-12-17T11:21:54.327Z,19.27
2018-12-17T11:24:23.199Z,19.67
2018-12-17T11:26:51.533Z,19.67
2018-12-17T11:29:19.895Z,18.60
2018-12-17T11:31:48.239Z,19.70
2018-12-17T11:34:16.607Z,18.40
2018-12-17T11:36:44.946Z,20.20
2018-12-17T11:39:13.378Z,18.23
2018-12-17T11:41:41.704Z,17.47
2018-12-17T11:44:10.027Z,16.57
2018-12-17T11:46:38.368Z,17.67
2018-12-17T11:49:06.713Z,18.57
2018-12-17T11:51:35.103Z,17.17
2018-12-17T11:54:03.470Z,16.20
2018-12-17T11:56:47.507Z,17.23
2018-12-17T11:59:15.854Z,17.37
2018-12-17T12:01:44.237Z,17.83
2018-12-17T12:04:13.359Z,21.10
2018-12-17T12:06:42.064Z,20.87
2018-12-17T12:09:12.357Z,19.43
2018-12-17T12:11:40.702Z,17.30
2018-12-17T12:14:09.070Z,20.00
2018-12-17T12:16:37.454Z,18.70
2018-12-17T12:19:05.807Z,18.53
2018-12-17T12:21:34.177Z,18.13
2018-12-17T12:24:02.560Z,17.73
2018-12-17T12:26:30.923Z,17.73
2018-12-17T12:28:59.275Z,18.10
2018-12-17T12:31:27.641Z,18.73
2018-12-17T12:33:55.980Z,19.00
2018-12-17T12:36:24.321Z,18.40
2018-12-17T12:38:52.637Z,18.53
2018-12-17T12:41:21.099Z,16.40
2018-12-17T12:43:49.479Z,17.60
2018-12-17T12:46:17.835Z,17.40
2018-12-17T12:48:46.194Z,19.47
2018-12-17T12:51:14.516Z,18.13
2018-12-17T12:53:42.910Z,18.50
2018-12-17T12:56:11.233Z,19.33
2018-12-17T12:58:39.645Z,20.30
2018-12-17T13:01:08.025Z,20.13
2018-12-17T13:03:36.452Z,19.63
2018-12-17T13:06:04.800Z,20.00
2018-12-17T13:08:33.145Z,18.70
2018-12-17T13:11:01.498Z,19.00
2018-12-17T13:13:29.825Z,19.27
2018-12-17T13:15:58.203Z,17.03
2018-12-17T13:18:26.547Z,17.00
2018-12-17T13:20:54.892Z,16.07
2018-12-17T13:23:23.271Z,15.90
2018-12-17T13:25:51.730Z,15.80
2018-12-17T13:28:20.055Z,15.30
2018-12-17T13:30:48.410Z,17.20
2018-12-17T13:33:16.813Z,16.07
2018-12-17T13:35:45.212Z,16.43
2018-12-17T13:38:13.744Z,15.00
2018-12-17T13:40:42.113Z,13.27
2018-12-17T13:43:10.467Z,14.13
2018-12-17T13:45:38.810Z,15.23
2018-12-17T13:48:07.204Z,12.20
2018-12-17T13:50:38.693Z,12.13
2018-12-17T13:53:12.438Z,12.37
2018-12-17T13:55:40.891Z,11.53
2018-12-17T13:58:09.543Z,11.13
2018-12-17T14:00:37.938Z,11.33
2018-12-17T14:03:06.284Z,13.50
2018-12-17T14:05:34.668Z,13.40
2018-12-17T14:08:03.078Z,13.33
2018-12-17T14:10:36.848Z,12.20
2018-12-17T14:13:05.405Z,14.03
2018-12-17T14:15:38.966Z,12.33
2018-12-17T14:18:11.557Z,13.17
2018-12-17T14:22:50.762Z,13.93
2018-12-17T14:25:19.138Z,136.30
2018-12-17T14:27:47.523Z,77.07
2018-12-17T14:30:16.005Z,215.10
2018-12-17T14:32:44.387Z,44.63
2018-12-17T14:35:12.863Z,10.63
2018-12-17T14:37:46.559Z,17.13
2018-12-17T14:40:14.886Z,9.73
2018-12-17T14:42:43.227Z,8.60
2018-12-17T14:45:11.722Z,8.50
2018-12-17T14:47:40.094Z,8.20
2018-12-17T14:50:08.575Z,8.03
2018-12-17T14:52:36.974Z,8.20
2018-12-17T14:55:06.321Z,10.30
2018-12-17T14:57:34.690Z,16.90
2018-12-17T15:00:03.624Z,13.53
2018-12-17T15:02:38.308Z,17.10
2018-12-17T15:05:06.945Z,13.90
2018-12-17T15:07:35.330Z,15.27
2018-12-17T15:10:04.158Z,17.13
2018-12-17T15:12:32.540Z,50.77
2018-12-17T15:15:00.890Z,11.03
2018-12-17T15:17:29.268Z,11.63
2018-12-17T15:19:57.861Z,25.77
2018-12-17T15:22:26.243Z,11.13
2018-12-17T15:24:54.601Z,11.37
2018-12-17T15:27:23.000Z,10.63
2018-12-17T15:29:51.506Z,9.80
2018-12-17T15:32:19.911Z,9.10
2018-12-17T15:34:48.336Z,8.37
2018-12-17T15:37:16.672Z,8.57
2018-12-17T15:39:45.085Z,7.50
2018-12-17T15:42:13.470Z,9.07
2018-12-17T15:44:41.847Z,22.43
2018-12-17T15:47:10.236Z,68.93
2018-12-17T15:49:38.613Z,36.63
2018-12-17T15:52:06.949Z,33.10
2018-12-17T15:54:35.316Z,31.23
2018-12-17T15:57:03.669Z,26.23
2018-12-17T15:59:32.175Z,24.67
2018-12-17T16:02:00.550Z,11.90
2018-12-17T16:04:28.915Z,9.70
2018-12-17T16:06:57.375Z,7.50
2018-12-17T16:09:25.750Z,8.33
2018-12-17T16:11:54.075Z,7.47
2018-12-17T16:14:22.414Z,8.23
2018-12-17T16:16:50.793Z,7.00
2018-12-17T16:19:19.111Z,7.73
2018-12-17T16:21:47.508Z,7.03
2018-12-17T16:24:15.855Z,7.17
2018-12-17T16:26:44.183Z,4.97
2018-12-17T16:29:12.553Z,4.93
2018-12-17T16:31:40.873Z,4.93
2018-12-17T16:34:09.284Z,5.27
2018-12-17T16:36:38.052Z,10.43
2018-12-17T16:39:07.647Z,28.83
2018-12-17T16:41:36.080Z,5.63
2018-12-17T16:44:04.639Z,7.33
2018-12-17T16:46:33.008Z,6.77
2018-12-17T16:49:01.338Z,7.30
2018-12-17T16:51:29.686Z,10.70
2018-12-17T16:53:58.033Z,8.23
2018-12-17T16:56:26.364Z,11.70
2018-12-17T16:58:54.747Z,5.70
2018-12-17T17:01:23.121Z,4.27
2018-12-17T17:03:51.496Z,5.83
2018-12-17T17:06:19.828Z,3.37
2018-12-17T17:08:48.182Z,4.40
2018-12-17T17:11:16.641Z,5.30
2018-12-17T17:13:44.990Z,3.70
2018-12-17T17:16:13.340Z,3.57
2018-12-17T17:18:41.697Z,3.93
2018-12-17T17:21:10.113Z,10.03
2018-12-17T17:23:38.511Z,5.57
2018-12-17T17:26:06.879Z,5.37
2018-12-17T17:28:35.357Z,6.90
2018-12-17T17:31:03.745Z,6.17
2018-12-17T17:33:32.208Z,5.17
2018-12-17T17:36:00.574Z,4.03
2018-12-17T17:38:28.926Z,6.63
2018-12-17T17:40:57.298Z,17.47
2018-12-17T17:43:25.697Z,7.53
2018-12-17T17:45:54.128Z,4.27
2018-12-17T17:48:22.555Z,3.73
2018-12-17T17:50:50.913Z,3.73
2018-12-17T17:53:19.297Z,5.13
2018-12-17T17:55:47.640Z,4.13
2018-12-17T17:58:15.982Z,3.90
2018-12-17T18:00:44.366Z,4.97
2018-12-17T18:03:12.716Z,4.07
2018-12-17T18:05:41.054Z,4.10
2018-12-17T18:08:09.424Z,3.90
2018-12-17T18:10:37.899Z,5.00
2018-12-17T18:13:06.278Z,4.73
2018-12-17T18:15:34.660Z,5.00
2018-12-17T18:18:03.032Z,5.10
2018-12-17T18:20:31.549Z,5.60
2018-12-17T18:22:59.905Z,5.90
2018-12-17T18:25:28.239Z,6.03
2018-12-17T18:27:56.605Z,6.17
2018-12-17T18:30:24.984Z,8.10
2018-12-17T18:32:53.325Z,6.97
2018-12-17T18:35:21.733Z,5.03
2018-12-17T18:37:50.257Z,8.13
2018-12-17T18:40:18.648Z,5.17
2018-12-17T18:42:47.012Z,4.40
2018-12-17T18:45:15.398Z,4.50
2018-12-17T18:47:43.759Z,5.70
2018-12-17T18:50:12.264Z,6.87
2018-12-17T18:52:40.606Z,6.00
2018-12-17T18:55:09.024Z,6.87
2018-12-17T18:57:37.466Z,15.30
2018-12-17T19:00:07.366Z,8.93
2018-12-17T19:02:35.769Z,10.00
2018-12-17T19:05:04.606Z,8.70
2018-12-17T19:07:33.020Z,10.43
2018-12-17T19:10:01.402Z,11.83
2018-12-17T19:12:29.784Z,10.87
2018-12-17T19:14:58.258Z,9.23
2018-12-17T19:17:27.106Z,9.27
2018-12-17T19:19:55.562Z,10.53
2018-12-17T19:22:25.518Z,11.50
2018-12-17T19:24:58.168Z,8.30
2018-12-17T19:27:27.356Z,7.77
2018-12-17T19:29:55.881Z,11.80
2018-12-17T19:32:24.451Z,11.13
2018-12-17T19:34:52.896Z,21.63
2018-12-17T19:37:21.806Z,28.57
2018-12-17T19:39:50.180Z,27.23
2018-12-17T19:42:18.650Z,19.67
2018-12-17T19:44:47.059Z,13.57
2018-12-17T19:47:15.441Z,11.43
2018-12-17T19:49:43.829Z,13.17
2018-12-17T19:52:12.231Z,12.57
2018-12-17T19:54:40.715Z,12.17
2018-12-17T19:57:09.127Z,11.43
2018-12-17T19:59:37.580Z,12.83
2018-12-17T20:02:06.059Z,10.47
2018-12-17T20:04:34.472Z,11.03
2018-12-17T20:07:02.878Z,10.27
2018-12-17T20:09:31.270Z,11.40
2018-12-17T20:11:59.663Z,11.00
2018-12-17T20:14:28.033Z,12.63
2018-12-17T20:16:56.460Z,12.93
2018-12-17T20:19:24.848Z,13.07
2018-12-17T20:21:53.214Z,14.23
2018-12-17T20:24:21.594Z,12.13
2018-12-17T20:26:50.019Z,11.47
2018-12-17T20:29:18.419Z,10.17
2018-12-17T20:31:46.851Z,10.23
2018-12-17T20:34:15.215Z,8.73
2018-12-17T20:36:43.614Z,14.37
2018-12-17T20:39:12.041Z,16.97
2018-12-17T20:41:40.460Z,11.33
2018-12-17T20:44:08.837Z,9.97
2018-12-17T20:46:37.235Z,9.30
2018-12-17T20:49:05.616Z,9.63
2018-12-17T20:51:33.991Z,8.43
2018-12-17T20:54:08.922Z,9.97
2018-12-17T20:56:37.278Z,8.50
2018-12-17T20:59:05.691Z,9.73
2018-12-17T21:01:34.100Z,9.90
2018-12-17T21:04:02.575Z,8.87
2018-12-17T21:06:31.291Z,9.57
2018-12-17T21:09:00.041Z,9.90
2018-12-17T21:11:28.609Z,8.87
2018-12-17T21:13:57.443Z,9.50
2018-12-17T21:16:25.832Z,8.27
2018-12-17T21:18:54.235Z,8.43
2018-12-17T21:21:22.596Z,13.10
2018-12-17T21:23:50.999Z,14.77
2018-12-17T21:26:19.356Z,14.27
2018-12-17T21:28:47.830Z,11.40
2018-12-17T21:31:16.210Z,9.50
2018-12-17T21:33:44.603Z,8.70
2018-12-17T21:36:13.058Z,10.53
2018-12-17T21:38:41.520Z,12.20
2018-12-17T21:41:09.913Z,14.27
2018-12-17T21:43:38.291Z,12.27
2018-12-17T21:46:06.688Z,12.97
2018-12-17T21:48:35.056Z,15.03
2018-12-17T21:51:03.425Z,15.20
2018-12-17T21:53:31.811Z,22.37
2018-12-17T21:56:00.290Z,20.73
2018-12-17T21:58:28.645Z,20.03
2018-12-17T22:00:57.000Z,16.57
2018-12-17T22:03:25.371Z,13.17
2018-12-17T22:05:53.777Z,22.17
2018-12-17T22:08:22.162Z,26.77
2018-12-17T22:10:50.512Z,31.33
2018-12-17T22:13:18.924Z,23.10
2018-12-17T22:15:47.298Z,29.43
2018-12-17T22:18:15.701Z,22.57
2018-12-17T22:20:44.077Z,45.03
2018-12-17T22:23:12.441Z,15.57
2018-12-17T22:25:40.780Z,21.73
2018-12-17T22:28:09.246Z,25.17
2018-12-17T22:30:37.662Z,17.37
2018-12-17T22:33:06.031Z,16.87
2018-12-17T22:35:34.427Z,20.10
2018-12-17T22:38:02.833Z,17.67
2018-12-17T22:40:31.205Z,17.60
2018-12-17T22:42:59.571Z,17.87
2018-12-17T22:45:29.530Z,16.77
2018-12-17T22:47:58.267Z,17.43
2018-12-17T22:50:26.611Z,14.73
2018-12-17T22:52:55.000Z,16.57
2018-12-17T22:55:23.427Z,94.73
2018-12-17T22:57:51.797Z,20.90
2018-12-17T23:00:20.309Z,137.40
2018-12-17T23:02:48.683Z,166.37
2018-12-17T23:05:17.090Z,163.50
2018-12-17T23:07:45.453Z,61.67
2018-12-17T23:10:25.043Z,28.50
2018-12-17T23:13:04.812Z,18.83
2018-12-17T23:15:44.388Z,49.13
2018-12-17T23:18:12.056Z,164.47
2018-12-17T23:20:43.005Z,213.10
2018-12-17T23:23:11.574Z,33.23
2018-12-17T23:25:39.908Z,12.53
2018-12-17T23:28:08.810Z,12.73
2018-12-17T23:30:37.304Z,12.73
2018-12-17T23:33:05.669Z,9.37
2018-12-17T23:35:34.009Z,21.63
2018-12-17T23:38:02.463Z,27.77
2018-12-17T23:40:30.857Z,26.40
2018-12-17T23:42:59.249Z,164.87
2018-12-17T23:45:27.728Z,135.50
2018-12-17T23:47:56.064Z,89.47
2018-12-17T23:50:24.456Z,23.20
2018-12-17T23:52:52.847Z,25.87
2018-12-17T23:55:21.293Z,13.40
2018-12-17T23:57:49.707Z,87.07
